createdAt,value
2024-01-17T00:01:08.276Z,4.70
2024-01-17T00:03:35.725Z,3.97
2024-01-17T00:06:04.781Z,4.40
2024-01-17T00:08:34.652Z,4.18
2024-01-17T00:11:03.645Z,4.35
2024-01-17T00:13:31.629Z,4.43
2024-01-17T00:16:00.164Z,4.40
2024-01-17T00:18:28.234Z,4.20
2024-01-17T00:20:57.405Z,5.60
2024-01-17T00:23:27.228Z,5.03
2024-01-17T00:25:55.927Z,5.68
2024-01-17T00:28:23.882Z,6.57
2024-01-17T00:30:52.437Z,5.62
2024-01-17T00:33:20.508Z,6.28
2024-01-17T00:35:49.097Z,5.82
2024-01-17T00:38:16.934Z,5.20
2024-01-17T00:40:45.431Z,5.18
2024-01-17T00:43:12.774Z,4.87
2024-01-17T00:45:40.754Z,6.70
2024-01-17T00:48:10.669Z,7.07
2024-01-17T00:50:39.862Z,9.60
2024-01-17T00:53:07.493Z,7.28
2024-01-17T00:55:34.909Z,6.45
2024-01-17T00:58:02.869Z,7.50
2024-01-17T01:00:31.487Z,11.07
2024-01-17T01:03:01.328Z,10.55
2024-01-17T01:05:30.450Z,8.85
2024-01-17T01:07:59.137Z,10.30
2024-01-17T01:10:27.875Z,13.70
2024-01-17T01:12:57.056Z,15.13
2024-01-17T01:15:26.156Z,15.77
2024-01-17T01:17:54.114Z,14.75
2024-01-17T01:20:22.702Z,20.25
2024-01-17T01:22:51.389Z,18.40
2024-01-17T01:25:20.384Z,19.98
2024-01-17T01:27:49.467Z,17.05
2024-01-17T01:30:18.514Z,17.95
2024-01-17T01:32:48.365Z,16.85
2024-01-17T01:35:16.315Z,16.37
2024-01-17T01:37:46.028Z,14.95
2024-01-17T01:40:14.952Z,14.48
2024-01-17T01:42:46.492Z,16.10
2024-01-17T01:45:15.757Z,15.35
2024-01-17T01:47:43.183Z,15.98
2024-01-17T01:50:11.748Z,14.18
2024-01-17T01:52:41.410Z,16.23
2024-01-17T01:55:10.382Z,15.98
2024-01-17T01:57:40.869Z,15.48
2024-01-17T02:00:08.782Z,15.38
2024-01-17T02:02:36.764Z,14.82
2024-01-17T02:05:08.239Z,14.02
2024-01-17T02:07:36.860Z,15.13
2024-01-17T02:10:05.628Z,15.93
2024-01-17T02:12:35.030Z,15.60
2024-01-17T02:15:03.638Z,16.95
2024-01-17T02:17:31.747Z,14.02
2024-01-17T02:20:01.296Z,16.83
2024-01-17T02:22:29.212Z,15.60
2024-01-17T02:24:57.681Z,15.07
2024-01-17T02:27:27.407Z,14.32
2024-01-17T02:29:55.404Z,14.52
2024-01-17T02:32:24.868Z,14.98
2024-01-17T02:34:54.872Z,15.27
2024-01-17T02:37:24.609Z,13.88
2024-01-17T02:39:52.554Z,15.15
2024-01-17T02:42:21.037Z,15.32
2024-01-17T02:44:48.654Z,14.70
2024-01-17T02:47:17.188Z,13.45
2024-01-17T02:49:45.948Z,15.35
2024-01-17T02:52:13.851Z,15.18
2024-01-17T02:54:43.658Z,14.98
2024-01-17T02:57:11.659Z,15.23
2024-01-17T02:59:39.672Z,15.05
2024-01-17T03:02:07.049Z,14.73
2024-01-17T03:04:35.039Z,15.10
2024-01-17T03:07:03.788Z,15.35
2024-01-17T03:09:32.590Z,15.38
2024-01-17T03:12:00.602Z,15.13
2024-01-17T03:14:28.552Z,15.32
2024-01-17T03:16:56.531Z,14.48
2024-01-17T03:19:25.735Z,14.32
2024-01-17T03:21:54.907Z,14.10
2024-01-17T03:24:22.351Z,15.10
2024-01-17T03:26:52.201Z,14.82
2024-01-17T03:29:20.173Z,16.15
2024-01-17T03:31:48.730Z,15.20
2024-01-17T03:34:18.524Z,15.27
2024-01-17T03:36:45.905Z,14.18
2024-01-17T03:39:13.950Z,14.82
2024-01-17T03:41:42.992Z,14.70
2024-01-17T03:44:10.970Z,15.45
2024-01-17T03:46:38.524Z,13.77
2024-01-17T03:49:06.552Z,15.73
2024-01-17T03:51:35.332Z,13.48
2024-01-17T03:54:04.134Z,14.80
2024-01-17T03:56:32.163Z,13.60
2024-01-17T03:59:00.142Z,13.85
2024-01-17T04:01:29.216Z,15.10
2024-01-17T04:03:57.112Z,14.52
2024-01-17T04:06:24.676Z,15.43
2024-01-17T04:08:52.648Z,13.45
2024-01-17T04:11:21.709Z,14.30
2024-01-17T04:13:50.219Z,14.70
2024-01-17T04:16:18.202Z,15.27
2024-01-17T04:18:47.216Z,14.00
2024-01-17T04:21:20.078Z,14.50
2024-01-17T04:23:50.649Z,15.23
2024-01-17T04:26:27.535Z,14.48
2024-01-17T04:28:55.678Z,14.75
2024-01-17T04:31:26.161Z,15.23
2024-01-17T04:33:55.702Z,14.20
2024-01-17T04:36:24.720Z,17.87
2024-01-17T04:38:52.649Z,17.45
2024-01-17T04:41:20.070Z,15.57
2024-01-17T04:43:47.964Z,16.27
2024-01-17T04:46:19.566Z,17.10
2024-01-17T04:48:47.493Z,18.37
2024-01-17T04:51:17.202Z,15.80
2024-01-17T04:53:45.961Z,15.98
2024-01-17T04:56:14.916Z,16.60
2024-01-17T04:58:42.488Z,15.68
2024-01-17T05:01:13.512Z,16.58
2024-01-17T05:03:44.419Z,15.75
2024-01-17T05:06:13.591Z,15.23
2024-01-17T05:08:42.122Z,17.25
2024-01-17T05:11:10.820Z,16.52
2024-01-17T05:13:39.819Z,15.55
2024-01-17T05:16:09.617Z,15.13
2024-01-17T05:18:38.899Z,16.42
2024-01-17T05:21:08.089Z,16.12
2024-01-17T05:23:36.147Z,16.23
2024-01-17T05:26:04.724Z,16.08
2024-01-17T05:28:33.784Z,17.60
2024-01-17T05:31:02.581Z,16.67
2024-01-17T05:33:30.704Z,16.05
2024-01-17T05:36:01.053Z,16.02
2024-01-17T05:38:28.869Z,17.17
2024-01-17T05:40:56.268Z,15.50
2024-01-17T05:43:24.256Z,16.08
2024-01-17T05:45:52.275Z,17.50
2024-01-17T05:48:20.507Z,16.65
2024-01-17T05:50:48.661Z,16.37
2024-01-17T05:53:16.661Z,17.33
2024-01-17T05:55:45.305Z,17.92
2024-01-17T05:58:13.193Z,17.55
2024-01-17T06:00:43.842Z,19.17
2024-01-17T06:03:11.794Z,15.85
2024-01-17T06:05:39.837Z,18.83
2024-01-17T06:08:09.581Z,19.65
2024-01-17T06:10:40.453Z,18.95
2024-01-17T06:13:09.722Z,16.65
2024-01-17T06:15:39.497Z,19.80
2024-01-17T06:18:07.527Z,18.95
2024-01-17T06:20:36.049Z,19.90
2024-01-17T06:23:05.163Z,20.27
2024-01-17T06:25:33.122Z,19.77
2024-01-17T06:28:02.833Z,21.05
2024-01-17T06:30:30.336Z,20.95
2024-01-17T06:32:57.917Z,21.98
2024-01-17T06:35:25.341Z,19.55
2024-01-17T06:37:52.918Z,22.10
2024-01-17T06:40:20.927Z,21.65
2024-01-17T06:42:48.932Z,21.10
2024-01-17T06:45:18.789Z,22.42
2024-01-17T06:47:47.881Z,21.62
2024-01-17T06:50:15.841Z,21.87
2024-01-17T06:52:44.927Z,20.83
2024-01-17T06:55:16.472Z,21.15
2024-01-17T06:57:45.869Z,21.12
2024-01-17T07:00:16.563Z,21.37
2024-01-17T07:02:45.141Z,21.25
2024-01-17T07:05:12.538Z,36.20
2024-01-17T07:07:40.668Z,28.12
2024-01-17T07:10:09.982Z,26.48
2024-01-17T07:12:37.373Z,28.17
2024-01-17T07:15:06.116Z,29.95
2024-01-17T07:17:33.556Z,27.60
2024-01-17T07:20:01.042Z,28.92
2024-01-17T07:22:58.341Z,31.52
2024-01-17T07:37:27.068Z,37.65
2024-01-17T07:39:56.996Z,31.17
2024-01-17T07:42:27.989Z,25.92
2024-01-17T07:44:57.627Z,25.90
2024-01-17T07:47:25.649Z,23.33
2024-01-17T07:49:54.198Z,21.27
2024-01-17T07:52:23.959Z,21.42
2024-01-17T07:54:52.745Z,21.15
2024-01-17T07:57:21.953Z,21.00
2024-01-17T07:59:51.057Z,19.42
2024-01-17T08:02:20.133Z,17.73
2024-01-17T08:04:47.652Z,16.48
2024-01-17T08:07:17.248Z,15.32
2024-01-17T08:09:46.339Z,12.75
2024-01-17T08:12:23.411Z,30.80
2024-01-17T08:15:13.673Z,23.42
2024-01-17T08:17:53.683Z,20.30
2024-01-17T08:21:14.279Z,24.00
2024-01-17T08:23:49.250Z,22.27
2024-01-17T08:26:38.541Z,20.75
2024-01-17T08:29:18.406Z,18.15
2024-01-17T08:31:47.456Z,16.52
2024-01-17T08:34:22.645Z,18.75
2024-01-17T08:37:25.436Z,18.60
2024-01-17T08:40:56.207Z,18.52
2024-01-17T08:43:45.465Z,19.17
2024-01-17T08:46:17.477Z,20.08
2024-01-17T08:48:46.108Z,16.33
2024-01-17T08:51:14.715Z,17.62
2024-01-17T08:53:42.976Z,16.48
2024-01-17T08:56:24.211Z,17.30
2024-01-17T08:58:52.156Z,17.48
2024-01-17T09:01:20.928Z,16.83
2024-01-17T09:03:49.431Z,16.65
2024-01-17T09:06:19.290Z,26.02
2024-01-17T09:08:48.409Z,23.27
2024-01-17T09:11:16.944Z,20.48
2024-01-17T09:13:44.961Z,26.83
2024-01-17T09:16:14.687Z,17.55
2024-01-17T09:18:43.474Z,19.02
2024-01-17T09:47:11.037Z,14.55
2024-01-17T09:49:38.448Z,13.13
2024-01-17T09:52:07.090Z,16.83
2024-01-17T09:54:43.627Z,14.77
2024-01-17T09:57:16.964Z,16.05
2024-01-17T09:59:51.378Z,16.20
2024-01-17T10:23:20.077Z,16.75
2024-01-17T10:25:49.170Z,17.83
2024-01-17T10:28:18.946Z,16.10
2024-01-17T10:30:46.366Z,17.00
2024-01-17T10:39:28.359Z,17.37
2024-01-17T10:41:56.691Z,17.10
2024-01-17T10:44:24.878Z,17.08
2024-01-17T10:46:55.049Z,17.55
2024-01-17T10:49:25.118Z,16.67
2024-01-17T10:52:14.842Z,19.23
2024-01-17T10:54:49.206Z,17.70
2024-01-17T10:57:17.388Z,18.30
2024-01-17T10:59:50.749Z,21.75
2024-01-17T11:02:22.750Z,20.52
2024-01-17T11:04:58.323Z,20.45
2024-01-17T11:07:25.980Z,18.75
2024-01-17T11:09:55.462Z,17.33
2024-01-17T11:12:24.855Z,20.85
2024-01-17T11:14:55.202Z,17.70
2024-01-17T11:17:29.487Z,16.65
2024-01-17T11:20:08.893Z,15.77
2024-01-17T11:22:42.466Z,18.08
2024-01-17T11:25:40.243Z,16.35
2024-01-17T11:28:28.787Z,13.23
2024-01-17T11:31:02.904Z,15.95
2024-01-17T11:43:07.167Z,15.98
2024-01-17T11:52:37.535Z,17.25
2024-01-17T11:58:23.890Z,14.52
2024-01-17T12:10:35.331Z,16.52
2024-01-17T12:13:03.272Z,18.80
2024-01-17T12:15:30.761Z,21.17
2024-01-17T12:17:58.805Z,16.52
2024-01-17T12:20:26.289Z,17.05
2024-01-17T12:37:27.001Z,20.55
2024-01-17T12:52:02.216Z,23.12
2024-01-17T12:54:38.436Z,21.00
2024-01-17T12:57:06.473Z,21.90
2024-01-17T12:59:35.789Z,19.77
2024-01-17T13:02:04.954Z,23.60
2024-01-17T13:04:32.907Z,22.52
2024-01-17T13:07:02.482Z,23.40
2024-01-17T13:09:33.598Z,26.60
2024-01-17T13:12:02.054Z,26.58
2024-01-17T13:14:31.614Z,24.90
2024-01-17T13:17:01.414Z,23.67
2024-01-17T13:19:31.841Z,21.05
2024-01-17T13:22:00.051Z,21.70
2024-01-17T13:24:28.039Z,21.48
2024-01-17T13:26:56.784Z,20.77
2024-01-17T13:29:25.430Z,21.92
2024-01-17T13:31:55.423Z,25.85
2024-01-17T13:34:24.045Z,24.65
2024-01-17T13:36:52.200Z,23.40
2024-01-17T13:39:19.731Z,24.65
2024-01-17T13:41:47.853Z,25.00
2024-01-17T13:44:16.556Z,21.35
2024-01-17T13:46:43.977Z,17.35
2024-01-17T13:49:13.361Z,20.15
2024-01-17T13:51:49.320Z,20.20
2024-01-17T14:10:04.576Z,22.37
2024-01-17T14:16:39.754Z,24.98
2024-01-17T14:26:40.538Z,25.27
2024-01-17T14:29:14.824Z,24.15
2024-01-17T14:31:43.485Z,27.02
2024-01-17T14:34:19.126Z,26.95
2024-01-17T14:36:54.927Z,27.62
2024-01-17T14:39:25.676Z,26.45
2024-01-17T14:42:11.645Z,27.90
2024-01-17T14:47:29.854Z,31.25
2024-01-17T14:53:24.252Z,28.02
2024-01-17T14:55:52.979Z,29.85
2024-01-17T14:58:22.167Z,33.15
2024-01-17T15:00:49.824Z,32.70
2024-01-17T15:03:18.346Z,35.35
2024-01-17T15:05:46.090Z,33.25
2024-01-17T15:08:14.853Z,31.40
2024-01-17T15:10:42.792Z,33.17
2024-01-17T15:15:48.264Z,33.80
2024-01-17T15:18:15.840Z,36.42
2024-01-17T15:20:43.985Z,36.92
2024-01-17T15:23:11.424Z,42.25
2024-01-17T15:25:41.661Z,53.85
2024-01-17T15:28:09.605Z,39.28
2024-01-17T15:30:38.667Z,33.58
2024-01-17T15:33:06.323Z,36.20
2024-01-17T15:35:33.831Z,35.53
2024-01-17T15:42:05.819Z,33.00
2024-01-17T15:44:49.073Z,36.38
2024-01-17T15:59:14.619Z,27.50
2024-01-17T16:38:47.302Z,19.65
2024-01-17T16:45:20.075Z,20.33
2024-01-17T17:35:24.492Z,21.52
2024-01-17T17:41:48.106Z,22.45
2024-01-17T17:45:27.231Z,23.52
2024-01-17T17:55:30.227Z,22.45
2024-01-17T18:02:34.062Z,24.80
2024-01-17T18:06:01.719Z,23.35
2024-01-17T18:09:25.008Z,23.92
2024-01-17T18:12:32.201Z,22.23
2024-01-17T18:15:07.581Z,22.77
2024-01-17T18:17:50.906Z,22.52
2024-01-17T18:20:25.137Z,23.80
2024-01-17T18:23:40.106Z,23.62
2024-01-17T18:26:13.171Z,23.15
2024-01-17T18:28:41.941Z,23.35
2024-01-17T18:31:16.536Z,21.42
2024-01-17T18:34:03.437Z,23.12
